sensor_id;sensor_type;location;lat;lon;timestamp;temperature;humidity
8332;DHT22;4203;48.144;14.118;2022-10-16T00:01:07;11.00;99.90
8332;DHT22;4203;48.144;14.118;2022-10-16T00:03:34;11.00;99.90
8332;DHT22;4203;48.144;14.118;2022-10-16T00:06:02;11.00;99.90
8332;DHT22;4203;48.144;14.118;2022-10-16T00:08:31;10.90;99.90
8332;DHT22;4203;48.144;14.118;2022-10-16T00:11:00;10.90;99.90
8332;DHT22;4203;48.144;14.118;2022-10-16T00:13:28;10.90;99.90
8332;DHT22;4203;48.144;14.118;2022-10-16T00:15:56;10.90;99.90
8332;DHT22;4203;48.144;14.118;2022-10-16T00:18:24;10.90;99.90
8332;DHT22;4203;48.144;14.118;2022-10-16T00:20:51;11.00;99.90
8332;DHT22;4203;48.144;14.118;2022-10-16T00:23:19;10.90;99.90
8332;DHT22;4203;48.144;14.118;2022-10-16T00:25:56;10.90;99.90
8332;DHT22;4203;48.144;14.118;2022-10-16T00:28:24;10.90;99.90
8332;DHT22;4203;48.144;14.118;2022-10-16T00:30:52;10.90;99.90
8332;DHT22;4203;48.144;14.118;2022-10-16T00:33:19;10.90;99.90
8332;DHT22;4203;48.144;14.118;2022-10-16T00:35:46;10.90;99.90
8332;DHT22;4203;48.144;14.118;2022-10-16T00:38:13;10.90;99.90
8332;DHT22;4203;48.144;14.118;2022-10-16T00:40:41;10.90;99.90
8332;DHT22;4203;48.144;14.118;2022-10-16T00:43:31;10.90;99.90
8332;DHT22;4203;48.144;14.118;2022-10-16T00:46:00;10.90;99.90
8332;DHT22;4203;48.144;14.118;2022-10-16T00:48:29;10.90;99.90
8332;DHT22;4203;48.144;14.118;2022-10-16T00:50:58;10.90;99.90
8332;DHT22;4203;48.144;14.118;2022-10-16T00:53:25;10.90;99.90
8332;DHT22;4203;48.144;14.118;2022-10-16T00:55:54;10.80;99.90
8332;DHT22;4203;48.144;14.118;2022-10-16T00:58:23;10.80;99.90
8332;DHT22;4203;48.144;14.118;2022-10-16T01:00:50;10.80;99.90
8332;DHT22;4203;48.144;14.118;2022-10-16T01:03:26;10.80;99.90
8332;DHT22;4203;48.144;14.118;2022-10-16T01:06:02;10.80;99.90
8332;DHT22;4203;48.144;14.118;2022-10-16T01:08:42;10.80;99.90
8332;DHT22;4203;48.144;14.118;2022-10-16T01:11:20;10.80;99.90
8332;DHT22;4203;48.144;14.118;2022-10-16T01:13:53;10.80;99.90
8332;DHT22;4203;48.144;14.118;2022-10-16T01:16:28;10.70;99.90
8332;DHT22;4203;48.144;14.118;2022-10-16T01:19:02;10.70;99.90
8332;DHT22;4203;48.144;14.118;2022-10-16T01:21:35;10.70;99.90
8332;DHT22;4203;48.144;14.118;2022-10-16T01:24:08;10.70;99.90
8332;DHT22;4203;48.144;14.118;2022-10-16T01:26:50;10.60;99.90
8332;DHT22;4203;48.144;14.118;2022-10-16T01:29:25;10.60;99.90
8332;DHT22;4203;48.144;14.118;2022-10-16T01:31:59;10.60;99.90
8332;DHT22;4203;48.144;14.118;2022-10-16T01:34:33;10.50;99.90
8332;DHT22;4203;48.144;14.118;2022-10-16T01:37:05;10.60;99.90
8332;DHT22;4203;48.144;14.118;2022-10-16T01:39:37;10.60;99.90
8332;DHT22;4203;48.144;14.118;2022-10-16T01:42:07;10.50;99.90
8332;DHT22;4203;48.144;14.118;2022-10-16T01:44:38;10.50;99.90
8332;DHT22;4203;48.144;14.118;2022-10-16T01:47:09;10.50;99.90
8332;DHT22;4203;48.144;14.118;2022-10-16T01:49:38;10.40;99.90
8332;DHT22;4203;48.144;14.118;2022-10-16T01:52:09;10.40;99.90
8332;DHT22;4203;48.144;14.118;2022-10-16T01:54:40;10.30;99.90
8332;DHT22;4203;48.144;14.118;2022-10-16T01:57:08;10.20;99.90
8332;DHT22;4203;48.144;14.118;2022-10-16T01:59:40;10.20;99.90
8332;DHT22;4203;48.144;14.118;2022-10-16T02:02:09;10.10;99.90
8332;DHT22;4203;48.144;14.118;2022-10-16T02:04:39;10.10;99.90
8332;DHT22;4203;48.144;14.118;2022-10-16T02:07:08;10.00;99.90
8332;DHT22;4203;48.144;14.118;2022-10-16T02:09:36;10.00;99.90
8332;DHT22;4203;48.144;14.118;2022-10-16T02:12:07;10.00;99.90
8332;DHT22;4203;48.144;14.118;2022-10-16T02:14:39;10.00;99.90
8332;DHT22;4203;48.144;14.118;2022-10-16T02:17:11;9.90;99.90
8332;DHT22;4203;48.144;14.118;2022-10-16T02:19:38;9.90;99.90
8332;DHT22;4203;48.144;14.118;2022-10-16T02:22:09;9.90;99.90
8332;DHT22;4203;48.144;14.118;2022-10-16T02:24:41;9.80;99.90
8332;DHT22;4203;48.144;14.118;2022-10-16T02:27:12;9.70;99.90
8332;DHT22;4203;48.144;14.118;2022-10-16T02:29:45;9.70;99.90
8332;DHT22;4203;48.144;14.118;2022-10-16T02:32:17;9.60;99.90
8332;DHT22;4203;48.144;14.118;2022-10-16T02:34:47;9.50;99.90
8332;DHT22;4203;48.144;14.118;2022-10-16T02:37:16;9.50;99.90
8332;DHT22;4203;48.144;14.118;2022-10-16T02:39:44;9.40;99.90
8332;DHT22;4203;48.144;14.118;2022-10-16T02:42:12;9.40;99.90
8332;DHT22;4203;48.144;14.118;2022-10-16T02:44:40;9.30;99.90
8332;DHT22;4203;48.144;14.118;2022-10-16T02:47:08;9.30;99.90
8332;DHT22;4203;48.144;14.118;2022-10-16T02:49:35;9.30;99.90
8332;DHT22;4203;48.144;14.118;2022-10-16T02:52:02;9.80;99.90
8332;DHT22;4203;48.144;14.118;2022-10-16T02:54:29;9.20;99.90
8332;DHT22;4203;48.144;14.118;2022-10-16T02:56:57;9.20;99.90
8332;DHT22;4203;48.144;14.118;2022-10-16T02:59:24;9.20;99.90
8332;DHT22;4203;48.144;14.118;2022-10-16T03:01:52;9.20;99.90
8332;DHT22;4203;48.144;14.118;2022-10-16T03:04:19;9.10;99.90
8332;DHT22;4203;48.144;14.118;2022-10-16T03:06:47;9.10;99.90
8332;DHT22;4203;48.144;14.118;2022-10-16T03:09:14;9.20;99.90
8332;DHT22;4203;48.144;14.118;2022-10-16T03:11:41;9.20;99.90
8332;DHT22;4203;48.144;14.118;2022-10-16T03:14:08;9.20;99.90
8332;DHT22;4203;48.144;14.118;2022-10-16T03:16:35;9.20;99.90
8332;DHT22;4203;48.144;14.118;2022-10-16T03:19:04;9.10;99.90
8332;DHT22;4203;48.144;14.118;2022-10-16T03:21:31;9.10;99.90
8332;DHT22;4203;48.144;14.118;2022-10-16T03:23:58;9.10;99.90
8332;DHT22;4203;48.144;14.118;2022-10-16T03:26:26;9.20;99.90
8332;DHT22;4203;48.144;14.118;2022-10-16T03:28:53;9.20;99.90
8332;DHT22;4203;48.144;14.118;2022-10-16T03:31:20;9.20;99.90
8332;DHT22;4203;48.144;14.118;2022-10-16T03:33:47;9.10;99.90
8332;DHT22;4203;48.144;14.118;2022-10-16T03:36:16;9.20;99.90
8332;DHT22;4203;48.144;14.118;2022-10-16T03:38:43;9.10;99.90
8332;DHT22;4203;48.144;14.118;2022-10-16T03:41:10;9.20;99.90
8332;DHT22;4203;48.144;14.118;2022-10-16T03:43:37;9.10;99.90
8332;DHT22;4203;48.144;14.118;2022-10-16T03:46:05;9.20;99.90
8332;DHT22;4203;48.144;14.118;2022-10-16T03:48:32;9.20;99.90
8332;DHT22;4203;48.144;14.118;2022-10-16T03:51:00;9.20;99.90
8332;DHT22;4203;48.144;14.118;2022-10-16T03:53:28;9.20;99.90
8332;DHT22;4203;48.144;14.118;2022-10-16T03:55:55;9.20;99.90
8332;DHT22;4203;48.144;14.118;2022-10-16T03:58:23;9.20;99.90
8332;DHT22;4203;48.144;14.118;2022-10-16T04:00:51;9.20;99.90
8332;DHT22;4203;48.144;14.118;2022-10-16T04:03:18;9.10;99.90
8332;DHT22;4203;48.144;14.118;2022-10-16T04:05:45;9.10;99.90
8332;DHT22;4203;48.144;14.118;2022-10-16T04:08:12;9.20;99.90
8332;DHT22;4203;48.144;14.118;2022-10-16T04:10:42;9.20;99.90
8332;DHT22;4203;48.144;14.118;2022-10-16T04:13:09;9.10;99.90
8332;DHT22;4203;48.144;14.118;2022-10-16T04:15:36;9.10;99.90
8332;DHT22;4203;48.144;14.118;2022-10-16T04:18:04;9.10;99.90
8332;DHT22;4203;48.144;14.118;2022-10-16T04:20:32;9.10;99.90
8332;DHT22;4203;48.144;14.118;2022-10-16T04:22:59;9.10;99.90
8332;DHT22;4203;48.144;14.118;2022-10-16T04:25:26;9.10;99.90
8332;DHT22;4203;48.144;14.118;2022-10-16T04:27:55;9.10;99.90
8332;DHT22;4203;48.144;14.118;2022-10-16T04:30:23;9.10;99.90
8332;DHT22;4203;48.144;14.118;2022-10-16T04:32:51;9.10;99.90
8332;DHT22;4203;48.144;14.118;2022-10-16T04:35:19;9.10;99.90
8332;DHT22;4203;48.144;14.118;2022-10-16T04:37:47;9.20;99.90
8332;DHT22;4203;48.144;14.118;2022-10-16T04:40:14;9.30;99.90
8332;DHT22;4203;48.144;14.118;2022-10-16T04:42:41;9.30;99.90
8332;DHT22;4203;48.144;14.118;2022-10-16T04:45:10;9.20;99.90
8332;DHT22;4203;48.144;14.118;2022-10-16T04:47:37;9.20;99.90
8332;DHT22;4203;48.144;14.118;2022-10-16T04:50:05;9.10;99.90
8332;DHT22;4203;48.144;14.118;2022-10-16T04:52:33;9.10;99.90
8332;DHT22;4203;48.144;14.118;2022-10-16T04:55:00;9.10;99.90
8332;DHT22;4203;48.144;14.118;2022-10-16T04:57:29;9.00;99.90
8332;DHT22;4203;48.144;14.118;2022-10-16T04:59:56;9.10;99.90
8332;DHT22;4203;48.144;14.118;2022-10-16T05:02:25;9.10;99.90
8332;DHT22;4203;48.144;14.118;2022-10-16T05:04:52;9.00;99.90
8332;DHT22;4203;48.144;14.118;2022-10-16T05:07:19;9.00;99.90
8332;DHT22;4203;48.144;14.118;2022-10-16T05:09:47;8.90;99.90
8332;DHT22;4203;48.144;14.118;2022-10-16T05:12:14;8.90;99.90
8332;DHT22;4203;48.144;14.118;2022-10-16T05:14:41;8.80;99.90
8332;DHT22;4203;48.144;14.118;2022-10-16T05:17:08;8.80;99.90
8332;DHT22;4203;48.144;14.118;2022-10-16T05:19:37;8.70;99.90
8332;DHT22;4203;48.144;14.118;2022-10-16T05:22:04;8.60;99.90
8332;DHT22;4203;48.144;14.118;2022-10-16T05:24:31;8.60;99.90
8332;DHT22;4203;48.144;14.118;2022-10-16T05:26:58;8.50;99.90
8332;DHT22;4203;48.144;14.118;2022-10-16T05:29:25;8.50;99.90
8332;DHT22;4203;48.144;14.118;2022-10-16T05:31:53;8.60;99.90
8332;DHT22;4203;48.144;14.118;2022-10-16T05:34:21;8.60;99.90
8332;DHT22;4203;48.144;14.118;2022-10-16T05:36:49;8.50;99.90
8332;DHT22;4203;48.144;14.118;2022-10-16T05:39:17;8.50;99.90
8332;DHT22;4203;48.144;14.118;2022-10-16T05:41:44;8.50;99.90
8332;DHT22;4203;48.144;14.118;2022-10-16T05:44:11;8.60;99.90
8332;DHT22;4203;48.144;14.118;2022-10-16T05:46:38;8.70;99.90
8332;DHT22;4203;48.144;14.118;2022-10-16T05:49:06;8.70;99.90
8332;DHT22;4203;48.144;14.118;2022-10-16T05:51:33;8.80;99.90
8332;DHT22;4203;48.144;14.118;2022-10-16T05:54:01;8.80;99.90
8332;DHT22;4203;48.144;14.118;2022-10-16T05:56:28;8.90;99.90
8332;DHT22;4203;48.144;14.118;2022-10-16T05:58:56;8.90;99.90
8332;DHT22;4203;48.144;14.118;2022-10-16T06:01:23;9.00;99.90
8332;DHT22;4203;48.144;14.118;2022-10-16T06:03:51;9.00;99.90
8332;DHT22;4203;48.144;14.118;2022-10-16T06:06:21;9.10;99.90
8332;DHT22;4203;48.144;14.118;2022-10-16T06:08:49;9.20;99.90
8332;DHT22;4203;48.144;14.118;2022-10-16T06:11:20;9.30;99.90
8332;DHT22;4203;48.144;14.118;2022-10-16T06:13:49;9.40;99.90
8332;DHT22;4203;48.144;14.118;2022-10-16T06:16:16;9.50;99.90
8332;DHT22;4203;48.144;14.118;2022-10-16T06:18:44;9.50;99.90
8332;DHT22;4203;48.144;14.118;2022-10-16T06:21:14;9.60;99.90
8332;DHT22;4203;48.144;14.118;2022-10-16T06:23:43;9.70;99.90
8332;DHT22;4203;48.144;14.118;2022-10-16T06:26:12;9.70;99.90
8332;DHT22;4203;48.144;14.118;2022-10-16T06:28:41;9.80;99.90
8332;DHT22;4203;48.144;14.118;2022-10-16T06:31:09;9.90;99.90
8332;DHT22;4203;48.144;14.118;2022-10-16T06:33:37;9.90;99.90
8332;DHT22;4203;48.144;14.118;2022-10-16T06:36:06;10.00;99.90
8332;DHT22;4203;48.144;14.118;2022-10-16T06:38:34;10.10;99.90
8332;DHT22;4203;48.144;14.118;2022-10-16T06:41:01;10.10;99.90
8332;DHT22;4203;48.144;14.118;2022-10-16T06:43:29;10.10;99.90
8332;DHT22;4203;48.144;14.118;2022-10-16T06:46:00;10.20;99.90
8332;DHT22;4203;48.144;14.118;2022-10-16T06:48:28;10.20;99.90
8332;DHT22;4203;48.144;14.118;2022-10-16T06:50:57;10.30;99.90
8332;DHT22;4203;48.144;14.118;2022-10-16T06:53:25;10.40;99.90
8332;DHT22;4203;48.144;14.118;2022-10-16T06:55:52;10.40;99.90
8332;DHT22;4203;48.144;14.118;2022-10-16T06:58:19;10.60;99.90
8332;DHT22;4203;48.144;14.118;2022-10-16T07:00:47;10.70;99.90
8332;DHT22;4203;48.144;14.118;2022-10-16T07:03:15;10.70;99.90
8332;DHT22;4203;48.144;14.118;2022-10-16T07:05:43;10.70;99.90
8332;DHT22;4203;48.144;14.118;2022-10-16T07:08:10;10.90;99.90
8332;DHT22;4203;48.144;14.118;2022-10-16T07:10:37;11.00;99.90
8332;DHT22;4203;48.144;14.118;2022-10-16T07:13:04;11.10;99.90
8332;DHT22;4203;48.144;14.118;2022-10-16T07:15:33;11.10;99.90
8332;DHT22;4203;48.144;14.118;2022-10-16T07:18:00;11.10;99.90
8332;DHT22;4203;48.144;14.118;2022-10-16T07:20:29;11.10;99.90
8332;DHT22;4203;48.144;14.118;2022-10-16T07:22:56;11.20;99.90
8332;DHT22;4203;48.144;14.118;2022-10-16T07:25:23;11.30;99.90
8332;DHT22;4203;48.144;14.118;2022-10-16T07:27:51;11.40;99.90
8332;DHT22;4203;48.144;14.118;2022-10-16T07:30:22;11.60;99.90
8332;DHT22;4203;48.144;14.118;2022-10-16T07:32:50;11.70;99.90
8332;DHT22;4203;48.144;14.118;2022-10-16T07:35:17;11.90;99.90
8332;DHT22;4203;48.144;14.118;2022-10-16T07:37:46;12.00;99.90
8332;DHT22;4203;48.144;14.118;2022-10-16T07:40:13;12.10;99.90
8332;DHT22;4203;48.144;14.118;2022-10-16T07:42:40;12.20;99.90
8332;DHT22;4203;48.144;14.118;2022-10-16T07:45:08;12.40;99.90
8332;DHT22;4203;48.144;14.118;2022-10-16T07:47:35;12.50;99.90
8332;DHT22;4203;48.144;14.118;2022-10-16T07:50:03;12.80;99.90
8332;DHT22;4203;48.144;14.118;2022-10-16T07:52:30;13.10;99.90
8332;DHT22;4203;48.144;14.118;2022-10-16T07:54:59;13.40;99.90
8332;DHT22;4203;48.144;14.118;2022-10-16T07:57:26;13.60;99.90
8332;DHT22;4203;48.144;14.118;2022-10-16T07:59:53;13.90;99.90
8332;DHT22;4203;48.144;14.118;2022-10-16T08:02:20;14.10;99.90
8332;DHT22;4203;48.144;14.118;2022-10-16T08:04:47;14.00;99.90
8332;DHT22;4203;48.144;14.118;2022-10-16T08:07:15;13.90;99.90
8332;DHT22;4203;48.144;14.118;2022-10-16T08:09:43;13.90;99.90
8332;DHT22;4203;48.144;14.118;2022-10-16T08:12:11;14.00;99.90
8332;DHT22;4203;48.144;14.118;2022-10-16T08:14:38;14.20;99.90
8332;DHT22;4203;48.144;14.118;2022-10-16T08:17:06;14.20;99.90
8332;DHT22;4203;48.144;14.118;2022-10-16T08:19:33;14.20;99.90
8332;DHT22;4203;48.144;14.118;2022-10-16T08:22:00;14.40;99.90
8332;DHT22;4203;48.144;14.118;2022-10-16T08:24:27;14.60;99.90
8332;DHT22;4203;48.144;14.118;2022-10-16T08:26:56;14.90;99.90
8332;DHT22;4203;48.144;14.118;2022-10-16T08:29:25;15.40;99.90
8332;DHT22;4203;48.144;14.118;2022-10-16T08:31:52;15.80;99.90
8332;DHT22;4203;48.144;14.118;2022-10-16T08:34:19;16.30;99.90
8332;DHT22;4203;48.144;14.118;2022-10-16T08:36:46;16.70;99.90
8332;DHT22;4203;48.144;14.118;2022-10-16T08:39:14;17.00;99.90
8332;DHT22;4203;48.144;14.118;2022-10-16T08:42:19;17.40;99.90
8332;DHT22;4203;48.144;14.118;2022-10-16T08:45:20;17.70;99.90
8332;DHT22;4203;48.144;14.118;2022-10-16T08:48:00;17.90;99.90
8332;DHT22;4203;48.144;14.118;2022-10-16T08:50:35;18.30;99.90
8332;DHT22;4203;48.144;14.118;2022-10-16T08:53:04;18.50;99.90
8332;DHT22;4203;48.144;14.118;2022-10-16T08:55:38;18.80;99.90
8332;DHT22;4203;48.144;14.118;2022-10-16T08:58:12;19.50;99.90
8332;DHT22;4203;48.144;14.118;2022-10-16T09:00:43;20.10;99.90
8332;DHT22;4203;48.144;14.118;2022-10-16T09:03:17;20.70;99.90
8332;DHT22;4203;48.144;14.118;2022-10-16T09:06:06;20.90;99.90
8332;DHT22;4203;48.144;14.118;2022-10-16T09:08:45;20.90;99.90
8332;DHT22;4203;48.144;14.118;2022-10-16T09:11:17;21.10;99.90
8332;DHT22;4203;48.144;14.118;2022-10-16T09:13:50;21.50;99.90
8332;DHT22;4203;48.144;14.118;2022-10-16T09:16:24;22.10;99.90
8332;DHT22;4203;48.144;14.118;2022-10-16T09:18:58;22.80;99.90
8332;DHT22;4203;48.144;14.118;2022-10-16T09:21:28;23.10;99.90
8332;DHT22;4203;48.144;14.118;2022-10-16T09:23:58;23.30;99.90
8332;DHT22;4203;48.144;14.118;2022-10-16T09:26:26;23.60;99.90
8332;DHT22;4203;48.144;14.118;2022-10-16T09:28:53;23.80;99.90
8332;DHT22;4203;48.144;14.118;2022-10-16T09:31:22;24.10;99.90
8332;DHT22;4203;48.144;14.118;2022-10-16T09:33:53;24.60;99.90
8332;DHT22;4203;48.144;14.118;2022-10-16T09:36:23;24.90;99.90
8332;DHT22;4203;48.144;14.118;2022-10-16T09:39:02;25.20;99.90
8332;DHT22;4203;48.144;14.118;2022-10-16T09:41:33;25.30;99.90
8332;DHT22;4203;48.144;14.118;2022-10-16T09:44:02;25.00;99.90
8332;DHT22;4203;48.144;14.118;2022-10-16T09:46:33;24.50;99.90
8332;DHT22;4203;48.144;14.118;2022-10-16T09:49:02;24.20;99.90
8332;DHT22;4203;48.144;14.118;2022-10-16T09:51:31;24.00;99.90
8332;DHT22;4203;48.144;14.118;2022-10-16T09:54:01;24.30;99.90
8332;DHT22;4203;48.144;14.118;2022-10-16T09:56:31;24.70;99.90
8332;DHT22;4203;48.144;14.118;2022-10-16T09:59:00;25.10;99.90
8332;DHT22;4203;48.144;14.118;2022-10-16T10:01:35;25.40;99.90
8332;DHT22;4203;48.144;14.118;2022-10-16T10:04:04;25.70;99.90
8332;DHT22;4203;48.144;14.118;2022-10-16T10:06:34;25.70;99.90
8332;DHT22;4203;48.144;14.118;2022-10-16T10:09:19;25.90;99.90
8332;DHT22;4203;48.144;14.118;2022-10-16T10:11:52;26.20;99.90
8332;DHT22;4203;48.144;14.118;2022-10-16T10:14:22;26.40;99.90
8332;DHT22;4203;48.144;14.118;2022-10-16T10:16:52;26.20;99.90
8332;DHT22;4203;48.144;14.118;2022-10-16T10:19:21;26.10;99.90
8332;DHT22;4203;48.144;14.118;2022-10-16T10:21:49;26.40;99.90
8332;DHT22;4203;48.144;14.118;2022-10-16T10:24:18;26.60;99.90
8332;DHT22;4203;48.144;14.118;2022-10-16T10:26:51;26.70;99.90
8332;DHT22;4203;48.144;14.118;2022-10-16T10:29:35;26.70;99.90
8332;DHT22;4203;48.144;14.118;2022-10-16T10:32:17;27.10;99.90
8332;DHT22;4203;48.144;14.118;2022-10-16T10:34:58;27.30;99.90
8332;DHT22;4203;48.144;14.118;2022-10-16T10:37:51;27.30;99.90
8332;DHT22;4203;48.144;14.118;2022-10-16T10:40:30;27.20;99.90
8332;DHT22;4203;48.144;14.118;2022-10-16T10:43:06;27.10;99.90
8332;DHT22;4203;48.144;14.118;2022-10-16T10:45:41;27.30;99.90
8332;DHT22;4203;48.144;14.118;2022-10-16T10:48:36;27.60;99.90
8332;DHT22;4203;48.144;14.118;2022-10-16T10:51:13;27.40;99.90
8332;DHT22;4203;48.144;14.118;2022-10-16T10:53:51;27.60;99.90
8332;DHT22;4203;48.144;14.118;2022-10-16T10:56:31;27.70;99.90
8332;DHT22;4203;48.144;14.118;2022-10-16T10:59:19;27.90;99.90
8332;DHT22;4203;48.144;14.118;2022-10-16T11:01:54;28.10;99.90
8332;DHT22;4203;48.144;14.118;2022-10-16T11:04:54;27.60;99.90
8332;DHT22;4203;48.144;14.118;2022-10-16T11:07:27;26.40;99.90
8332;DHT22;4203;48.144;14.118;2022-10-16T11:09:58;27.20;99.90
8332;DHT22;4203;48.144;14.118;2022-10-16T11:12:31;27.80;99.90
8332;DHT22;4203;48.144;14.118;2022-10-16T11:15:04;28.60;99.90
8332;DHT22;4203;48.144;14.118;2022-10-16T11:17:39;29.10;99.90
8332;DHT22;4203;48.144;14.118;2022-10-16T11:20:14;29.20;99.90
8332;DHT22;4203;48.144;14.118;2022-10-16T11:22:48;29.30;99.90
8332;DHT22;4203;48.144;14.118;2022-10-16T11:25:21;29.40;99.90
8332;DHT22;4203;48.144;14.118;2022-10-16T11:27:54;29.60;99.90
8332;DHT22;4203;48.144;14.118;2022-10-16T11:30:25;29.60;99.90
8332;DHT22;4203;48.144;14.118;2022-10-16T11:33:21;30.00;99.90
8332;DHT22;4203;48.144;14.118;2022-10-16T11:35:55;30.30;99.90
8332;DHT22;4203;48.144;14.118;2022-10-16T11:38:30;30.10;99.90
8332;DHT22;4203;48.144;14.118;2022-10-16T11:41:03;29.40;99.90
8332;DHT22;4203;48.144;14.118;2022-10-16T11:43:37;28.70;99.90
8332;DHT22;4203;48.144;14.118;2022-10-16T11:46:09;28.00;99.90
8332;DHT22;4203;48.144;14.118;2022-10-16T11:48:41;27.50;99.90
8332;DHT22;4203;48.144;14.118;2022-10-16T11:51:17;27.50;99.90
8332;DHT22;4203;48.144;14.118;2022-10-16T11:53:53;28.10;99.90
8332;DHT22;4203;48.144;14.118;2022-10-16T11:56:22;28.60;99.90
8332;DHT22;4203;48.144;14.118;2022-10-16T11:58:55;29.30;99.90
8332;DHT22;4203;48.144;14.118;2022-10-16T12:01:29;29.60;99.90
8332;DHT22;4203;48.144;14.118;2022-10-16T12:04:16;29.50;99.90
8332;DHT22;4203;48.144;14.118;2022-10-16T12:06:52;30.00;99.90
8332;DHT22;4203;48.144;14.118;2022-10-16T12:09:24;30.50;99.90
8332;DHT22;4203;48.144;14.118;2022-10-16T12:11:53;30.70;99.90
8332;DHT22;4203;48.144;14.118;2022-10-16T12:14:32;31.10;99.90
8332;DHT22;4203;48.144;14.118;2022-10-16T12:17:01;31.10;99.90
8332;DHT22;4203;48.144;14.118;2022-10-16T12:19:32;30.80;99.90
8332;DHT22;4203;48.144;14.118;2022-10-16T12:22:02;30.70;99.90
8332;DHT22;4203;48.144;14.118;2022-10-16T12:24:34;30.50;99.90
8332;DHT22;4203;48.144;14.118;2022-10-16T12:27:05;30.60;99.90
8332;DHT22;4203;48.144;14.118;2022-10-16T12:29:44;30.50;99.90
8332;DHT22;4203;48.144;14.118;2022-10-16T12:32:27;30.50;99.90
8332;DHT22;4203;48.144;14.118;2022-10-16T12:34:55;30.60;99.90
8332;DHT22;4203;48.144;14.118;2022-10-16T12:37:26;30.60;99.60
8332;DHT22;4203;48.144;14.118;2022-10-16T12:39:55;30.80;99.20
8332;DHT22;4203;48.144;14.118;2022-10-16T12:42:32;30.80;99.90
8332;DHT22;4203;48.144;14.118;2022-10-16T12:45:01;30.70;99.00
8332;DHT22;4203;48.144;14.118;2022-10-16T12:47:48;30.90;99.60
8332;DHT22;4203;48.144;14.118;2022-10-16T12:50:31;31.30;98.80
8332;DHT22;4203;48.144;14.118;2022-10-16T12:53:00;31.80;98.00
8332;DHT22;4203;48.144;14.118;2022-10-16T12:55:34;32.30;96.50
8332;DHT22;4203;48.144;14.118;2022-10-16T12:58:21;32.30;97.10
8332;DHT22;4203;48.144;14.118;2022-10-16T13:00:57;32.70;96.80
8332;DHT22;4203;48.144;14.118;2022-10-16T13:03:39;33.10;95.10
8332;DHT22;4203;48.144;14.118;2022-10-16T13:06:18;33.30;94.10
8332;DHT22;4203;48.144;14.118;2022-10-16T13:09:17;33.60;94.70
8332;DHT22;4203;48.144;14.118;2022-10-16T13:12:09;34.10;92.90
8332;DHT22;4203;48.144;14.118;2022-10-16T13:15:08;34.50;92.80
8332;DHT22;4203;48.144;14.118;2022-10-16T13:17:46;35.10;91.10
8332;DHT22;4203;48.144;14.118;2022-10-16T13:20:22;35.40;90.00
8332;DHT22;4203;48.144;14.118;2022-10-16T13:23:02;35.30;88.70
8332;DHT22;4203;48.144;14.118;2022-10-16T13:25:41;35.40;90.70
8332;DHT22;4203;48.144;14.118;2022-10-16T13:28:13;35.40;88.20
8332;DHT22;4203;48.144;14.118;2022-10-16T13:30:43;35.40;88.90
8332;DHT22;4203;48.144;14.118;2022-10-16T13:33:15;35.50;86.50
8332;DHT22;4203;48.144;14.118;2022-10-16T13:35:49;35.50;86.30
8332;DHT22;4203;48.144;14.118;2022-10-16T13:38:19;35.40;84.80
8332;DHT22;4203;48.144;14.118;2022-10-16T13:40:53;35.40;85.50
8332;DHT22;4203;48.144;14.118;2022-10-16T13:43:24;35.30;83.50
8332;DHT22;4203;48.144;14.118;2022-10-16T13:45:58;34.60;86.80
8332;DHT22;4203;48.144;14.118;2022-10-16T13:48:25;34.50;85.90
8332;DHT22;4203;48.144;14.118;2022-10-16T13:51:00;34.30;87.20
8332;DHT22;4203;48.144;14.118;2022-10-16T13:53:30;33.80;87.90
8332;DHT22;4203;48.144;14.118;2022-10-16T13:56:00;33.20;88.10
8332;DHT22;4203;48.144;14.118;2022-10-16T13:58:28;31.80;90.90
8332;DHT22;4203;48.144;14.118;2022-10-16T14:00:57;30.10;91.80
8332;DHT22;4203;48.144;14.118;2022-10-16T14:03:25;28.70;93.00
8332;DHT22;4203;48.144;14.118;2022-10-16T14:05:54;27.70;94.30
8332;DHT22;4203;48.144;14.118;2022-10-16T14:08:23;26.80;96.30
8332;DHT22;4203;48.144;14.118;2022-10-16T14:10:55;26.10;97.90
8332;DHT22;4203;48.144;14.118;2022-10-16T14:13:31;25.60;99.30
8332;DHT22;4203;48.144;14.118;2022-10-16T14:16:03;25.00;99.90
8332;DHT22;4203;48.144;14.118;2022-10-16T14:18:32;24.80;99.90
8332;DHT22;4203;48.144;14.118;2022-10-16T14:21:04;24.50;99.90
8332;DHT22;4203;48.144;14.118;2022-10-16T14:23:35;24.30;99.90
8332;DHT22;4203;48.144;14.118;2022-10-16T14:26:22;24.20;99.90
8332;DHT22;4203;48.144;14.118;2022-10-16T14:29:08;23.80;99.90
8332;DHT22;4203;48.144;14.118;2022-10-16T14:31:37;23.70;99.90
8332;DHT22;4203;48.144;14.118;2022-10-16T14:34:26;23.60;99.90
8332;DHT22;4203;48.144;14.118;2022-10-16T14:36:55;23.30;99.90
8332;DHT22;4203;48.144;14.118;2022-10-16T14:39:23;23.10;99.90
8332;DHT22;4203;48.144;14.118;2022-10-16T14:41:52;23.00;99.90
8332;DHT22;4203;48.144;14.118;2022-10-16T14:44:26;22.90;99.90
8332;DHT22;4203;48.144;14.118;2022-10-16T14:46:54;22.70;99.90
8332;DHT22;4203;48.144;14.118;2022-10-16T14:49:23;22.60;99.90
8332;DHT22;4203;48.144;14.118;2022-10-16T14:51:51;22.60;99.90
8332;DHT22;4203;48.144;14.118;2022-10-16T14:54:19;22.50;99.90
8332;DHT22;4203;48.144;14.118;2022-10-16T14:56:48;22.40;99.90
8332;DHT22;4203;48.144;14.118;2022-10-16T14:59:25;22.30;99.90
8332;DHT22;4203;48.144;14.118;2022-10-16T15:01:54;22.20;99.90
8332;DHT22;4203;48.144;14.118;2022-10-16T15:04:22;22.10;99.90
8332;DHT22;4203;48.144;14.118;2022-10-16T15:06:49;22.00;99.90
8332;DHT22;4203;48.144;14.118;2022-10-16T15:09:16;21.90;99.90
8332;DHT22;4203;48.144;14.118;2022-10-16T15:11:44;21.80;99.90
8332;DHT22;4203;48.144;14.118;2022-10-16T15:14:12;21.80;99.90
8332;DHT22;4203;48.144;14.118;2022-10-16T15:16:41;21.60;99.90
8332;DHT22;4203;48.144;14.118;2022-10-16T15:19:09;21.50;99.90
8332;DHT22;4203;48.144;14.118;2022-10-16T15:21:36;21.40;99.90
8332;DHT22;4203;48.144;14.118;2022-10-16T15:24:05;21.30;99.90
8332;DHT22;4203;48.144;14.118;2022-10-16T15:26:35;21.10;99.90
8332;DHT22;4203;48.144;14.118;2022-10-16T15:29:02;20.80;99.90
8332;DHT22;4203;48.144;14.118;2022-10-16T15:31:30;20.60;99.90
8332;DHT22;4203;48.144;14.118;2022-10-16T15:33:59;20.50;99.90
8332;DHT22;4203;48.144;14.118;2022-10-16T15:36:31;20.40;99.90
8332;DHT22;4203;48.144;14.118;2022-10-16T15:42:23;19.80;99.90
8332;DHT22;4203;48.144;14.118;2022-10-16T15:44:51;19.50;99.90
8332;DHT22;4203;48.144;14.118;2022-10-16T15:47:18;19.20;99.90
8332;DHT22;4203;48.144;14.118;2022-10-16T15:49:46;18.90;99.90
8332;DHT22;4203;48.144;14.118;2022-10-16T15:52:13;18.70;99.90
8332;DHT22;4203;48.144;14.118;2022-10-16T15:54:41;18.40;99.90
8332;DHT22;4203;48.144;14.118;2022-10-16T15:57:09;18.20;99.90
8332;DHT22;4203;48.144;14.118;2022-10-16T15:59:36;18.00;99.90
8332;DHT22;4203;48.144;14.118;2022-10-16T16:02:03;17.80;99.90
8332;DHT22;4203;48.144;14.118;2022-10-16T16:04:30;17.60;99.90
8332;DHT22;4203;48.144;14.118;2022-10-16T16:06:59;17.50;99.90
8332;DHT22;4203;48.144;14.118;2022-10-16T16:12:49;17.10;99.90
8332;DHT22;4203;48.144;14.118;2022-10-16T16:15:18;17.00;99.90
8332;DHT22;4203;48.144;14.118;2022-10-16T16:17:46;16.80;99.90
8332;DHT22;4203;48.144;14.118;2022-10-16T16:20:13;16.70;99.90